Alcantarilla Airport

Airport
ICAO code: 
LERI
Summary
ICAO Region: 
EUR
Territory: 
Location: 
,
Serving: 
Murcia
Elevation: 
250 ft
Coordinates: 
Aerial View: 
37° 57' 4" N, 1° 13' 49.148" W
Metar
Observation
LERI 270800Z 22004KT CAVOK 05/03 Q1007 NOSIG
Station
Murcia / Alcantarilla
Date/Time
2021-11-27 08:00:00
Wind direction
220°
Wind speed
04 kts
Lowest cloud amount
clouds and visibility OK
Temperature
5°C
Dew point
3°C
Humidity
86%
QNH
1007 hPa
Weather condition
n/a

Runways

Designator Length Width Surface Rops
7/25 938 45 ASP No/No
Airport map: 
Aerial View: 

SKYbrary Partners:

Safety knowledge contributed by: